sensor_id;sensor_type;location;lat;lon;timestamp;pressure;altitude;pressure_sealevel;temperature;humidity
11077;BME280;5591;42.626;23.380;2022-11-30T00:01:58;94294.56;;;6.38;100.00
11077;BME280;5591;42.626;23.380;2022-11-30T00:04:25;94296.69;;;6.67;100.00
11077;BME280;5591;42.626;23.380;2022-11-30T00:06:52;94298.94;;;6.70;100.00
11077;BME280;5591;42.626;23.380;2022-11-30T00:09:22;94303.66;;;6.42;100.00
11077;BME280;5591;42.626;23.380;2022-11-30T00:11:48;94289.16;;;6.24;100.00
11077;BME280;5591;42.626;23.380;2022-11-30T00:14:15;94309.97;;;6.16;100.00
11077;BME280;5591;42.626;23.380;2022-11-30T00:16:42;94304.34;;;6.36;100.00
11077;BME280;5591;42.626;23.380;2022-11-30T00:19:10;94307.91;;;6.51;100.00
11077;BME280;5591;42.626;23.380;2022-11-30T00:21:37;94308.09;;;6.66;100.00
11077;BME280;5591;42.626;23.380;2022-11-30T00:24:04;94316.09;;;6.56;100.00
11077;BME280;5591;42.626;23.380;2022-11-30T00:26:31;94316.03;;;6.32;100.00
11077;BME280;5591;42.626;23.380;2022-11-30T00:28:58;94335.47;;;6.62;100.00
11077;BME280;5591;42.626;23.380;2022-11-30T00:31:25;94319.00;;;6.85;100.00
11077;BME280;5591;42.626;23.380;2022-11-30T00:33:51;94320.81;;;6.93;100.00
11077;BME280;5591;42.626;23.380;2022-11-30T00:36:20;94315.09;;;6.81;100.00
11077;BME280;5591;42.626;23.380;2022-11-30T00:38:49;94321.13;;;6.66;100.00
11077;BME280;5591;42.626;23.380;2022-11-30T00:41:17;94312.16;;;7.00;100.00
11077;BME280;5591;42.626;23.380;2022-11-30T00:43:44;94313.31;;;6.66;100.00
11077;BME280;5591;42.626;23.380;2022-11-30T00:46:10;94311.84;;;6.87;100.00
11077;BME280;5591;42.626;23.380;2022-11-30T00:48:38;94308.41;;;6.87;100.00
11077;BME280;5591;42.626;23.380;2022-11-30T00:51:07;94305.50;;;6.74;100.00
11077;BME280;5591;42.626;23.380;2022-11-30T00:53:35;94304.03;;;6.79;100.00
11077;BME280;5591;42.626;23.380;2022-11-30T00:56:03;94303.69;;;6.58;100.00
11077;BME280;5591;42.626;23.380;2022-11-30T00:58:29;94313.97;;;6.52;100.00
11077;BME280;5591;42.626;23.380;2022-11-30T01:00:56;94344.56;;;6.58;100.00
11077;BME280;5591;42.626;23.380;2022-11-30T01:03:23;94197.78;;;5.85;100.00
11077;BME280;5591;42.626;23.380;2022-11-30T01:05:50;94298.94;;;6.38;100.00
11077;BME280;5591;42.626;23.380;2022-11-30T01:08:16;94299.25;;;6.27;100.00
11077;BME280;5591;42.626;23.380;2022-11-30T01:10:45;94291.94;;;6.54;100.00
11077;BME280;5591;42.626;23.380;2022-11-30T01:13:17;94295.88;;;6.34;100.00
11077;BME280;5591;42.626;23.380;2022-11-30T01:15:44;94287.88;;;6.44;100.00
11077;BME280;5591;42.626;23.380;2022-11-30T01:18:11;94291.91;;;6.06;100.00
11077;BME280;5591;42.626;23.380;2022-11-30T01:20:39;94296.19;;;6.39;100.00
11077;BME280;5591;42.626;23.380;2022-11-30T01:23:06;94268.97;;;6.34;100.00
11077;BME280;5591;42.626;23.380;2022-11-30T01:25:33;94298.28;;;6.36;100.00
11077;BME280;5591;42.626;23.380;2022-11-30T01:28:01;94295.53;;;6.61;100.00
11077;BME280;5591;42.626;23.380;2022-11-30T01:30:28;94301.56;;;6.70;100.00
11077;BME280;5591;42.626;23.380;2022-11-30T01:32:55;94334.94;;;6.42;100.00
11077;BME280;5591;42.626;23.380;2022-11-30T01:35:26;94308.06;;;6.34;100.00
11077;BME280;5591;42.626;23.380;2022-11-30T01:37:53;94280.19;;;6.18;100.00
11077;BME280;5591;42.626;23.380;2022-11-30T01:40:20;94301.19;;;6.17;100.00
11077;BME280;5591;42.626;23.380;2022-11-30T01:42:47;94300.19;;;6.02;100.00
11077;BME280;5591;42.626;23.380;2022-11-30T01:45:15;94311.03;;;5.81;100.00
11077;BME280;5591;42.626;23.380;2022-11-30T01:47:45;94302.75;;;5.86;100.00
11077;BME280;5591;42.626;23.380;2022-11-30T01:50:16;94301.84;;;5.69;100.00
11077;BME280;5591;42.626;23.380;2022-11-30T01:52:46;94295.13;;;6.00;100.00
11077;BME280;5591;42.626;23.380;2022-11-30T01:55:17;94298.47;;;6.34;100.00
11077;BME280;5591;42.626;23.380;2022-11-30T01:57:48;94283.66;;;6.51;100.00
11077;BME280;5591;42.626;23.380;2022-11-30T02:00:18;94283.47;;;6.28;100.00
11077;BME280;5591;42.626;23.380;2022-11-30T02:07:50;94275.97;;;6.73;100.00
11077;BME280;5591;42.626;23.380;2022-11-30T02:10:20;94283.16;;;6.79;100.00
11077;BME280;5591;42.626;23.380;2022-11-30T02:13:10;94281.84;;;6.59;100.00
11077;BME280;5591;42.626;23.380;2022-11-30T02:15:48;94281.72;;;6.61;100.00
11077;BME280;5591;42.626;23.380;2022-11-30T02:18:22;94282.31;;;6.79;100.00
11077;BME280;5591;42.626;23.380;2022-11-30T02:21:01;94293.41;;;6.33;100.00
11077;BME280;5591;42.626;23.380;2022-11-30T02:26:50;94282.97;;;6.81;100.00
11077;BME280;5591;42.626;23.380;2022-11-30T02:29:22;94310.03;;;6.80;100.00
11077;BME280;5591;42.626;23.380;2022-11-30T02:31:54;94279.75;;;6.63;100.00
11077;BME280;5591;42.626;23.380;2022-11-30T02:34:27;94284.78;;;6.48;100.00
11077;BME280;5591;42.626;23.380;2022-11-30T02:36:56;94275.03;;;6.58;100.00
11077;BME280;5591;42.626;23.380;2022-11-30T02:39:24;94282.19;;;6.80;100.00
11077;BME280;5591;42.626;23.380;2022-11-30T02:41:51;94289.69;;;6.67;100.00
11077;BME280;5591;42.626;23.380;2022-11-30T02:44:19;94283.63;;;6.59;100.00
11077;BME280;5591;42.626;23.380;2022-11-30T02:47:01;94271.91;;;6.87;100.00
11077;BME280;5591;42.626;23.380;2022-11-30T02:49:32;94288.53;;;6.86;100.00
11077;BME280;5591;42.626;23.380;2022-11-30T02:52:03;94284.63;;;6.82;100.00
11077;BME280;5591;42.626;23.380;2022-11-30T02:54:31;94284.63;;;6.34;100.00
11077;BME280;5591;42.626;23.380;2022-11-30T02:56:58;94295.06;;;6.66;100.00
11077;BME280;5591;42.626;23.380;2022-11-30T02:59:25;94283.94;;;6.80;100.00
11077;BME280;5591;42.626;23.380;2022-11-30T03:01:52;94288.53;;;6.86;100.00
11077;BME280;5591;42.626;23.380;2022-11-30T03:04:20;94291.94;;;6.86;100.00
11077;BME280;5591;42.626;23.380;2022-11-30T03:06:46;94289.34;;;6.38;100.00
11077;BME280;5591;42.626;23.380;2022-11-30T03:09:13;94295.22;;;6.56;100.00
11077;BME280;5591;42.626;23.380;2022-11-30T03:11:40;94286.41;;;6.49;100.00
11077;BME280;5591;42.626;23.380;2022-11-30T03:14:07;94292.78;;;6.39;100.00
11077;BME280;5591;42.626;23.380;2022-11-30T03:16:35;94286.59;;;6.40;100.00
11077;BME280;5591;42.626;23.380;2022-11-30T03:19:02;94292.28;;;6.35;100.00
11077;BME280;5591;42.626;23.380;2022-11-30T03:21:31;94292.25;;;6.19;100.00
11077;BME280;5591;42.626;23.380;2022-11-30T03:23:58;94296.31;;;6.14;100.00
11077;BME280;5591;42.626;23.380;2022-11-30T03:26:24;94289.81;;;6.18;100.00
11077;BME280;5591;42.626;23.380;2022-11-30T03:28:51;94293.88;;;6.20;100.00
11077;BME280;5591;42.626;23.380;2022-11-30T03:31:18;94325.81;;;6.38;100.00
11077;BME280;5591;42.626;23.380;2022-11-30T03:33:45;94283.50;;;6.44;100.00
11077;BME280;5591;42.626;23.380;2022-11-30T03:36:12;94287.53;;;6.47;100.00
11077;BME280;5591;42.626;23.380;2022-11-30T03:38:40;94278.09;;;6.30;100.00
11077;BME280;5591;42.626;23.380;2022-11-30T03:41:09;94288.16;;;6.09;100.00
11077;BME280;5591;42.626;23.380;2022-11-30T03:43:38;94288.00;;;6.18;100.00
11077;BME280;5591;42.626;23.380;2022-11-30T03:46:05;94288.34;;;6.23;100.00
11077;BME280;5591;42.626;23.380;2022-11-30T03:48:32;94295.81;;;6.18;100.00
11077;BME280;5591;42.626;23.380;2022-11-30T03:51:00;94316.69;;;6.26;100.00
11077;BME280;5591;42.626;23.380;2022-11-30T03:53:27;94285.75;;;6.23;100.00
11077;BME280;5591;42.626;23.380;2022-11-30T03:55:57;94289.13;;;6.16;100.00
11077;BME280;5591;42.626;23.380;2022-11-30T03:58:24;94290.66;;;6.50;100.00
11077;BME280;5591;42.626;23.380;2022-11-30T04:00:58;94290.31;;;6.53;100.00
11077;BME280;5591;42.626;23.380;2022-11-30T04:03:24;94294.72;;;6.29;100.00
11077;BME280;5591;42.626;23.380;2022-11-30T04:05:51;94297.31;;;6.37;100.00
11077;BME280;5591;42.626;23.380;2022-11-30T04:08:18;94291.94;;;6.38;100.00
11077;BME280;5591;42.626;23.380;2022-11-30T04:10:45;94295.31;;;5.99;100.00
11077;BME280;5591;42.626;23.380;2022-11-30T04:13:14;94296.31;;;6.14;100.00
11077;BME280;5591;42.626;23.380;2022-11-30T04:15:40;94304.09;;;6.06;100.00
11077;BME280;5591;42.626;23.380;2022-11-30T04:18:07;94294.19;;;6.33;100.00
11077;BME280;5591;42.626;23.380;2022-11-30T04:20:34;94334.16;;;6.58;100.00
11077;BME280;5591;42.626;23.380;2022-11-30T04:23:01;94300.91;;;6.68;100.00
11077;BME280;5591;42.626;23.380;2022-11-30T04:25:27;94246.66;;;6.31;100.00
11077;BME280;5591;42.626;23.380;2022-11-30T04:27:54;94311.19;;;6.61;100.00
11077;BME280;5591;42.626;23.380;2022-11-30T04:30:22;94301.91;;;6.75;100.00
11077;BME280;5591;42.626;23.380;2022-11-30T04:32:49;94310.72;;;6.82;100.00
11077;BME280;5591;42.626;23.380;2022-11-30T04:35:16;94311.69;;;6.73;100.00
11077;BME280;5591;42.626;23.380;2022-11-30T04:37:43;94299.28;;;6.75;100.00
11077;BME280;5591;42.626;23.380;2022-11-30T04:40:11;94305.16;;;6.77;100.00
11077;BME280;5591;42.626;23.380;2022-11-30T04:42:38;94305.97;;;6.53;100.00
11077;BME280;5591;42.626;23.380;2022-11-30T04:45:07;94301.41;;;6.55;100.00
11077;BME280;5591;42.626;23.380;2022-11-30T04:47:35;94306.94;;;6.60;100.00
11077;BME280;5591;42.626;23.380;2022-11-30T04:50:02;94310.84;;;6.64;100.00
11077;BME280;5591;42.626;23.380;2022-11-30T04:52:29;94318.03;;;6.62;100.00
11077;BME280;5591;42.626;23.380;2022-11-30T04:54:56;94312.81;;;6.78;100.00
11077;BME280;5591;42.626;23.380;2022-11-30T04:57:23;94319.19;;;6.84;100.00
11077;BME280;5591;42.626;23.380;2022-11-30T04:59:51;94319.44;;;6.25;100.00
11077;BME280;5591;42.626;23.380;2022-11-30T05:02:18;94305.13;;;6.29;100.00
11077;BME280;5591;42.626;23.380;2022-11-30T05:04:46;94316.53;;;6.20;100.00
11077;BME280;5591;42.626;23.380;2022-11-30T05:07:13;94319.28;;;6.18;100.00
11077;BME280;5591;42.626;23.380;2022-11-30T05:09:40;94318.13;;;6.13;100.00
11077;BME280;5591;42.626;23.380;2022-11-30T05:12:06;94309.94;;;6.00;100.00
11077;BME280;5591;42.626;23.380;2022-11-30T05:14:33;94328.00;;;5.93;100.00
11077;BME280;5591;42.626;23.380;2022-11-30T05:17:00;94316.16;;;6.15;100.00
11077;BME280;5591;42.626;23.380;2022-11-30T05:19:27;94248.44;;;5.49;100.00
11077;BME280;5591;42.626;23.380;2022-11-30T05:21:55;94324.16;;;6.21;100.00
11077;BME280;5591;42.626;23.380;2022-11-30T05:24:21;94316.91;;;5.83;100.00
11077;BME280;5591;42.626;23.380;2022-11-30T05:26:48;94339.47;;;6.16;100.00
11077;BME280;5591;42.626;23.380;2022-11-30T05:29:15;94210.00;;;5.93;100.00
11077;BME280;5591;42.626;23.380;2022-11-30T05:31:42;94320.63;;;6.70;100.00
11077;BME280;5591;42.626;23.380;2022-11-30T05:34:09;94333.41;;;6.16;100.00
11077;BME280;5591;42.626;23.380;2022-11-30T05:36:36;94321.25;;;6.40;100.00
11077;BME280;5591;42.626;23.380;2022-11-30T05:39:04;94321.59;;;6.53;100.00
11077;BME280;5591;42.626;23.380;2022-11-30T05:41:31;94326.88;;;6.04;100.00
11077;BME280;5591;42.626;23.380;2022-11-30T05:43:58;94329.69;;;6.18;100.00
11077;BME280;5591;42.626;23.380;2022-11-30T05:46:24;94325.94;;;6.13;100.00
11077;BME280;5591;42.626;23.380;2022-11-30T05:48:51;94325.00;;;6.30;100.00
11077;BME280;5591;42.626;23.380;2022-11-30T05:51:19;94329.22;;;6.23;100.00
11077;BME280;5591;42.626;23.380;2022-11-30T05:53:46;94333.81;;;6.29;100.00
11077;BME280;5591;42.626;23.380;2022-11-30T05:56:16;94334.28;;;6.32;100.00
11077;BME280;5591;42.626;23.380;2022-11-30T05:58:43;94349.22;;;6.14;100.00
11077;BME280;5591;42.626;23.380;2022-11-30T06:01:16;94281.31;;;6.16;100.00
11077;BME280;5591;42.626;23.380;2022-11-30T06:03:43;94268.69;;;5.79;100.00
11077;BME280;5591;42.626;23.380;2022-11-30T06:06:10;94341.47;;;6.46;100.00
11077;BME280;5591;42.626;23.380;2022-11-30T06:08:37;94335.69;;;6.11;100.00
11077;BME280;5591;42.626;23.380;2022-11-30T06:11:04;94352.56;;;6.56;100.00
11077;BME280;5591;42.626;23.380;2022-11-30T06:13:33;94355.75;;;6.18;100.00
11077;BME280;5591;42.626;23.380;2022-11-30T06:16:00;94340.47;;;6.39;100.00
11077;BME280;5591;42.626;23.380;2022-11-30T06:18:27;94332.56;;;5.99;100.00
11077;BME280;5591;42.626;23.380;2022-11-30T06:20:57;94361.28;;;6.15;100.00
11077;BME280;5591;42.626;23.380;2022-11-30T06:23:25;94329.25;;;6.39;100.00
11077;BME280;5591;42.626;23.380;2022-11-30T06:25:51;94350.44;;;6.60;100.00
11077;BME280;5591;42.626;23.380;2022-11-30T06:28:18;94405.75;;;6.87;100.00
11077;BME280;5591;42.626;23.380;2022-11-30T06:30:46;94364.31;;;6.84;100.00
11077;BME280;5591;42.626;23.380;2022-11-30T06:33:13;94370.19;;;6.78;100.00
11077;BME280;5591;42.626;23.380;2022-11-30T06:35:43;94363.03;;;6.80;100.00
11077;BME280;5591;42.626;23.380;2022-11-30T06:38:10;94364.81;;;7.04;100.00
11077;BME280;5591;42.626;23.380;2022-11-30T06:40:37;94373.31;;;7.14;100.00
11077;BME280;5591;42.626;23.380;2022-11-30T06:43:04;94372.13;;;7.24;100.00
11077;BME280;5591;42.626;23.380;2022-11-30T06:45:31;94375.41;;;6.70;100.00
11077;BME280;5591;42.626;23.380;2022-11-30T06:47:59;94343.75;;;6.41;100.00
11077;BME280;5591;42.626;23.380;2022-11-30T08:04:03;94344.25;;;6.53;100.00
11077;BME280;5591;42.626;23.380;2022-11-30T08:06:30;94380.44;;;6.80;100.00
11077;BME280;5591;42.626;23.380;2022-11-30T08:09:00;94365.63;;;6.88;100.00
11077;BME280;5591;42.626;23.380;2022-11-30T08:11:28;94360.56;;;6.79;100.00
11077;BME280;5591;42.626;23.380;2022-11-30T08:13:55;94379.50;;;6.97;100.00
11077;BME280;5591;42.626;23.380;2022-11-30T08:16:24;94359.91;;;6.69;100.00
11077;BME280;5591;42.626;23.380;2022-11-30T08:18:51;94377.13;;;6.38;100.00
11077;BME280;5591;42.626;23.380;2022-11-30T08:21:20;94380.16;;;7.07;100.00
11077;BME280;5591;42.626;23.380;2022-11-30T08:23:48;94361.22;;;6.89;100.00
11077;BME280;5591;42.626;23.380;2022-11-30T08:26:17;94298.47;;;6.58;100.00
11077;BME280;5591;42.626;23.380;2022-11-30T08:28:46;94378.19;;;7.25;100.00
11077;BME280;5591;42.626;23.380;2022-11-30T08:31:15;94382.59;;;7.08;100.00
11077;BME280;5591;42.626;23.380;2022-11-30T08:33:43;94401.50;;;6.94;100.00
11077;BME280;5591;42.626;23.380;2022-11-30T08:36:11;94388.78;;;6.91;100.00
11077;BME280;5591;42.626;23.380;2022-11-30T08:38:41;94385.03;;;6.94;100.00
11077;BME280;5591;42.626;23.380;2022-11-30T08:41:10;94384.38;;;6.92;100.00
11077;BME280;5591;42.626;23.380;2022-11-30T08:43:38;94359.41;;;6.97;100.00
11077;BME280;5591;42.626;23.380;2022-11-30T08:46:07;94376.88;;;7.36;100.00
11077;BME280;5591;42.626;23.380;2022-11-30T08:48:34;94376.88;;;7.21;100.00
11077;BME280;5591;42.626;23.380;2022-11-30T08:51:02;94368.53;;;7.41;100.00
11077;BME280;5591;42.626;23.380;2022-11-30T08:53:29;94380.22;;;7.69;100.00
11077;BME280;5591;42.626;23.380;2022-11-30T08:55:59;94361.84;;;7.93;100.00
11077;BME280;5591;42.626;23.380;2022-11-30T08:58:28;94369.28;;;8.12;100.00
11077;BME280;5591;42.626;23.380;2022-11-30T09:01:04;94383.78;;;7.76;100.00
11077;BME280;5591;42.626;23.380;2022-11-30T09:03:31;94313.41;;;7.28;100.00
11077;BME280;5591;42.626;23.380;2022-11-30T09:06:02;94322.75;;;7.69;100.00
11077;BME280;5591;42.626;23.380;2022-11-30T09:08:29;94363.34;;;7.87;100.00
11077;BME280;5591;42.626;23.380;2022-11-30T09:10:58;94390.78;;;7.83;100.00
11077;BME280;5591;42.626;23.380;2022-11-30T09:13:25;94361.50;;;7.49;100.00
11077;BME280;5591;42.626;23.380;2022-11-30T09:15:53;94374.25;;;7.28;100.00
11077;BME280;5591;42.626;23.380;2022-11-30T09:18:20;94386.78;;;7.57;100.00
11077;BME280;5591;42.626;23.380;2022-11-30T09:20:47;94387.47;;;7.35;100.00
11077;BME280;5591;42.626;23.380;2022-11-30T09:23:14;94392.63;;;7.67;100.00
11077;BME280;5591;42.626;23.380;2022-11-30T09:25:40;94400.16;;;7.62;100.00
11077;BME280;5591;42.626;23.380;2022-11-30T09:28:09;94374.47;;;7.81;100.00
11077;BME280;5591;42.626;23.380;2022-11-30T09:30:36;94388.81;;;7.93;100.00
11077;BME280;5591;42.626;23.380;2022-11-30T09:33:02;94396.97;;;7.98;100.00
11077;BME280;5591;42.626;23.380;2022-11-30T09:35:29;94394.59;;;8.19;100.00
11077;BME280;5591;42.626;23.380;2022-11-30T09:37:56;94381.97;;;7.84;100.00
11077;BME280;5591;42.626;23.380;2022-11-30T09:40:23;94401.81;;;8.09;100.00
11077;BME280;5591;42.626;23.380;2022-11-30T09:42:56;94370.91;;;8.21;100.00
11077;BME280;5591;42.626;23.380;2022-11-30T09:45:29;94399.25;;;7.93;100.00
11077;BME280;5591;42.626;23.380;2022-11-30T09:48:21;94393.69;;;8.43;100.00
11077;BME280;5591;42.626;23.380;2022-11-30T09:50:51;94411.75;;;8.22;100.00
11077;BME280;5591;42.626;23.380;2022-11-30T09:53:22;94412.53;;;7.84;100.00
11077;BME280;5591;42.626;23.380;2022-11-30T09:55:52;94407.25;;;7.92;100.00
11077;BME280;5591;42.626;23.380;2022-11-30T09:58:26;94388.19;;;7.83;100.00
11077;BME280;5591;42.626;23.380;2022-11-30T10:00:56;94378.59;;;8.14;100.00
11077;BME280;5591;42.626;23.380;2022-11-30T10:03:23;94389.28;;;8.43;100.00
11077;BME280;5591;42.626;23.380;2022-11-30T10:05:55;94375.50;;;8.19;100.00
11077;BME280;5591;42.626;23.380;2022-11-30T10:08:41;94377.31;;;7.64;100.00
11077;BME280;5591;42.626;23.380;2022-11-30T10:11:23;94389.44;;;7.95;100.00
11077;BME280;5591;42.626;23.380;2022-11-30T10:13:59;94385.91;;;7.80;100.00
11077;BME280;5591;42.626;23.380;2022-11-30T10:16:37;94384.84;;;7.51;100.00
11077;BME280;5591;42.626;23.380;2022-11-30T10:19:17;94386.19;;;7.93;100.00
11077;BME280;5591;42.626;23.380;2022-11-30T10:21:59;94385.69;;;7.98;100.00
11077;BME280;5591;42.626;23.380;2022-11-30T10:24:37;94380.31;;;7.91;100.00
11077;BME280;5591;42.626;23.380;2022-11-30T10:27:16;94360.28;;;7.76;100.00
11077;BME280;5591;42.626;23.380;2022-11-30T10:29:43;94369.59;;;7.78;100.00
11077;BME280;5591;42.626;23.380;2022-11-30T10:32:17;94273.84;;;7.55;100.00
11077;BME280;5591;42.626;23.380;2022-11-30T10:34:47;94367.84;;;8.48;100.00
11077;BME280;5591;42.626;23.380;2022-11-30T10:37:18;94380.69;;;7.80;100.00
11077;BME280;5591;42.626;23.380;2022-11-30T10:39:56;94358.78;;;7.89;100.00
11077;BME280;5591;42.626;23.380;2022-11-30T10:42:28;94367.31;;;8.14;100.00
11077;BME280;5591;42.626;23.380;2022-11-30T10:44:59;94365.53;;;8.22;100.00
11077;BME280;5591;42.626;23.380;2022-11-30T10:47:32;94367.44;;;8.28;100.00
11077;BME280;5591;42.626;23.380;2022-11-30T10:50:02;94356.19;;;8.28;100.00
11077;BME280;5591;42.626;23.380;2022-11-30T10:52:34;94385.34;;;8.01;100.00
11077;BME280;5591;42.626;23.380;2022-11-30T10:55:12;94355.06;;;8.22;100.00
11077;BME280;5591;42.626;23.380;2022-11-30T10:57:40;94350.00;;;8.13;100.00
11077;BME280;5591;42.626;23.380;2022-11-30T11:00:12;94350.97;;;8.50;100.00
11077;BME280;5591;42.626;23.380;2022-11-30T11:02:44;94344.63;;;8.45;100.00
11077;BME280;5591;42.626;23.380;2022-11-30T11:05:17;94335.56;;;8.33;100.00
11077;BME280;5591;42.626;23.380;2022-11-30T11:07:49;94341.19;;;8.22;100.00
11077;BME280;5591;42.626;23.380;2022-11-30T11:10:18;94345.09;;;8.26;100.00
11077;BME280;5591;42.626;23.380;2022-11-30T11:12:49;94276.31;;;7.87;100.00
11077;BME280;5591;42.626;23.380;2022-11-30T11:15:18;94341.38;;;8.43;100.00
11077;BME280;5591;42.626;23.380;2022-11-30T11:17:47;94346.00;;;8.02;100.00
11077;BME280;5591;42.626;23.380;2022-11-30T11:20:30;94335.44;;;7.88;100.00
11077;BME280;5591;42.626;23.380;2022-11-30T11:22:57;94348.50;;;8.26;100.00
11077;BME280;5591;42.626;23.380;2022-11-30T11:25:32;94341.84;;;8.16;100.00
11077;BME280;5591;42.626;23.380;2022-11-30T11:28:06;94341.53;;;8.19;100.00
11077;BME280;5591;42.626;23.380;2022-11-30T11:30:35;94338.13;;;8.10;100.00
11077;BME280;5591;42.626;23.380;2022-11-30T11:33:18;94344.94;;;8.19;100.00
11077;BME280;5591;42.626;23.380;2022-11-30T11:35:46;94322.53;;;8.25;100.00
11077;BME280;5591;42.626;23.380;2022-11-30T11:38:24;94341.31;;;8.59;100.00
11077;BME280;5591;42.626;23.380;2022-11-30T11:40:57;94349.97;;;8.29;100.00
11077;BME280;5591;42.626;23.380;2022-11-30T11:43:27;94348.09;;;8.45;100.00
11077;BME280;5591;42.626;23.380;2022-11-30T11:45:56;94345.97;;;8.41;100.00
11077;BME280;5591;42.626;23.380;2022-11-30T11:48:31;94321.47;;;8.42;100.00
11077;BME280;5591;42.626;23.380;2022-11-30T11:51:01;94344.38;;;7.93;100.00
11077;BME280;5591;42.626;23.380;2022-11-30T11:53:42;94339.28;;;8.00;100.00
11077;BME280;5591;42.626;23.380;2022-11-30T11:56:13;94337.25;;;7.79;100.00
11077;BME280;5591;42.626;23.380;2022-11-30T11:58:45;94327.56;;;7.96;100.00
11077;BME280;5591;42.626;23.380;2022-11-30T12:01:20;94346.94;;;7.63;100.00
11077;BME280;5591;42.626;23.380;2022-11-30T12:04:03;94345.50;;;7.99;100.00
11077;BME280;5591;42.626;23.380;2022-11-30T12:06:33;94342.03;;;8.06;100.00
11077;BME280;5591;42.626;23.380;2022-11-30T12:09:04;94343.03;;;8.05;100.00
11077;BME280;5591;42.626;23.380;2022-11-30T12:11:39;94342.88;;;7.99;100.00
11077;BME280;5591;42.626;23.380;2022-11-30T12:14:10;94349.75;;;8.00;100.00
11077;BME280;5591;42.626;23.380;2022-11-30T12:16:49;94353.69;;;8.34;100.00
11077;BME280;5591;42.626;23.380;2022-11-30T12:19:28;94347.59;;;7.65;100.00
11077;BME280;5591;42.626;23.380;2022-11-30T12:22:03;94348.00;;;7.84;100.00
11077;BME280;5591;42.626;23.380;2022-11-30T12:24:52;94350.47;;;8.16;100.00
11077;BME280;5591;42.626;23.380;2022-11-30T12:27:30;94359.88;;;8.41;100.00
11077;BME280;5591;42.626;23.380;2022-11-30T12:30:06;94374.00;;;8.16;100.00
11077;BME280;5591;42.626;23.380;2022-11-30T12:33:00;94365.94;;;8.34;100.00
11077;BME280;5591;42.626;23.380;2022-11-30T12:35:38;94351.88;;;8.65;100.00
11077;BME280;5591;42.626;23.380;2022-11-30T12:38:16;94355.97;;;8.68;100.00
11077;BME280;5591;42.626;23.380;2022-11-30T12:40:54;94353.28;;;8.76;100.00
11077;BME280;5591;42.626;23.380;2022-11-30T12:43:33;94351.09;;;8.57;100.00
11077;BME280;5591;42.626;23.380;2022-11-30T12:46:08;94363.41;;;8.79;100.00
11077;BME280;5591;42.626;23.380;2022-11-30T12:48:42;94349.38;;;8.72;100.00
11077;BME280;5591;42.626;23.380;2022-11-30T12:51:19;94366.34;;;8.76;100.00
11077;BME280;5591;42.626;23.380;2022-11-30T12:53:53;94366.78;;;8.34;100.00
11077;BME280;5591;42.626;23.380;2022-11-30T12:56:29;94378.59;;;8.53;100.00
11077;BME280;5591;42.626;23.380;2022-11-30T12:59:04;94369.59;;;8.55;100.00
11077;BME280;5591;42.626;23.380;2022-11-30T13:01:47;94370.47;;;8.48;100.00
11077;BME280;5591;42.626;23.380;2022-11-30T13:04:20;94346.81;;;8.41;100.00
11077;BME280;5591;42.626;23.380;2022-11-30T13:06:53;94371.91;;;8.81;100.00
11077;BME280;5591;42.626;23.380;2022-11-30T13:09:28;94376.38;;;8.95;100.00
11077;BME280;5591;42.626;23.380;2022-11-30T13:11:59;94367.13;;;8.84;100.00
11077;BME280;5591;42.626;23.380;2022-11-30T13:14:29;94378.13;;;8.49;100.00
11077;BME280;5591;42.626;23.380;2022-11-30T13:17:00;94372.94;;;8.72;100.00
11077;BME280;5591;42.626;23.380;2022-11-30T13:19:40;94374.19;;;8.76;100.00
11077;BME280;5591;42.626;23.380;2022-11-30T13:22:16;94351.13;;;8.26;100.00
11077;BME280;5591;42.626;23.380;2022-11-30T13:24:49;94365.75;;;8.66;100.00
11077;BME280;5591;42.626;23.380;2022-11-30T13:27:23;94381.13;;;8.69;100.00
11077;BME280;5591;42.626;23.380;2022-11-30T13:30:12;94375.41;;;8.35;100.00
11077;BME280;5591;42.626;23.380;2022-11-30T13:32:42;94379.03;;;8.34;100.00
11077;BME280;5591;42.626;23.380;2022-11-30T13:35:40;94378.13;;;8.19;100.00
11077;BME280;5591;42.626;23.380;2022-11-30T13:38:17;94365.16;;;8.33;100.00
11077;BME280;5591;42.626;23.380;2022-11-30T13:40:56;94385.72;;;8.36;100.00
11077;BME280;5591;42.626;23.380;2022-11-30T13:43:24;94382.47;;;8.34;100.00
11077;BME280;5591;42.626;23.380;2022-11-30T13:46:02;94381.34;;;8.29;100.00
11077;BME280;5591;42.626;23.380;2022-11-30T13:48:32;94366.00;;;8.18;100.00
11077;BME280;5591;42.626;23.380;2022-11-30T13:50:59;94364.06;;;8.20;100.00
11077;BME280;5591;42.626;23.380;2022-11-30T13:53:28;94362.56;;;8.17;100.00
11077;BME280;5591;42.626;23.380;2022-11-30T13:56:03;94358.19;;;7.63;100.00
11077;BME280;5591;42.626;23.380;2022-11-30T13:58:30;94349.31;;;7.88;100.00
11077;BME280;5591;42.626;23.380;2022-11-30T14:03:43;94351.34;;;7.62;100.00
11077;BME280;5591;42.626;23.380;2022-11-30T14:09:12;94338.97;;;7.56;100.00
11077;BME280;5591;42.626;23.380;2022-11-30T14:11:41;94348.56;;;7.72;100.00
11077;BME280;5591;42.626;23.380;2022-11-30T14:14:43;94348.97;;;7.91;100.00
11077;BME280;5591;42.626;23.380;2022-11-30T14:17:23;94346.88;;;7.87;100.00
11077;BME280;5591;42.626;23.380;2022-11-30T14:19:54;94344.78;;;7.74;100.00
11077;BME280;5591;42.626;23.380;2022-11-30T14:22:24;94342.13;;;7.90;100.00
11077;BME280;5591;42.626;23.380;2022-11-30T14:24:53;94339.66;;;7.89;100.00
11077;BME280;5591;42.626;23.380;2022-11-30T14:27:22;94342.25;;;7.97;100.00
11077;BME280;5591;42.626;23.380;2022-11-30T14:29:52;94349.47;;;7.87;100.00
11077;BME280;5591;42.626;23.380;2022-11-30T14:32:27;94355.50;;;7.87;100.00
11077;BME280;5591;42.626;23.380;2022-11-30T14:35:02;94348.34;;;7.89;100.00
11077;BME280;5591;42.626;23.380;2022-11-30T14:37:38;94352.59;;;7.74;100.00
11077;BME280;5591;42.626;23.380;2022-11-30T14:40:15;94338.38;;;7.85;100.00
11077;BME280;5591;42.626;23.380;2022-11-30T14:42:46;94351.31;;;7.78;100.00
11077;BME280;5591;42.626;23.380;2022-11-30T14:45:18;94350.53;;;7.62;100.00